Terminal Aerodrome Forecast
Issued by NWS Cleveland, OH

Home | Current Version | Previous Version | Graphics & Text | Print | Product List | Glossary Off
Versions: 1 2 3 4 5 6 7 8 9 10 11 12 13 14 15

000
FTUS41 KCLE 202336
TAFYNG
TAF
KYNG 202336Z 2100/2124 35006KT P6SM SKC
     FM210300 VRB03KT P6SM SCT250
     FM211600 35006KT P6SM BKN250=

USA.gov is the U.S. government's official web portal to all federal, state and local government web resources and services.